createdAt,value
2017-08-20T00:02:15.181Z,14.70
2017-08-20T00:04:42.900Z,14.64
2017-08-20T00:07:10.804Z,14.66
2017-08-20T00:09:38.928Z,14.77
2017-08-20T00:12:06.706Z,14.67
2017-08-20T00:14:34.539Z,14.62
2017-08-20T00:17:02.300Z,14.62
2017-08-20T00:19:30.100Z,14.62
2017-08-20T00:21:57.806Z,14.54
2017-08-20T00:24:25.528Z,14.59
2017-08-20T00:26:55.760Z,14.53
2017-08-20T00:29:23.541Z,14.59
2017-08-20T00:31:51.339Z,14.61
2017-08-20T00:34:19.053Z,14.59
2017-08-20T00:36:46.810Z,14.50
2017-08-20T00:39:15.460Z,14.58
2017-08-20T00:41:43.315Z,14.61
2017-08-20T00:44:11.024Z,14.67
2017-08-20T00:46:38.797Z,14.57
2017-08-20T00:49:06.575Z,14.53
2017-08-20T00:51:34.409Z,14.45
2017-08-20T00:54:02.178Z,14.54
2017-08-20T00:56:29.960Z,14.69
2017-08-20T00:58:57.885Z,14.60
2017-08-20T01:01:25.653Z,14.66
2017-08-20T01:03:53.359Z,14.61
2017-08-20T01:06:21.086Z,14.55
2017-08-20T01:08:48.798Z,14.61
2017-08-20T01:11:16.573Z,14.66
2017-08-20T01:13:44.278Z,14.61
2017-08-20T01:16:11.936Z,14.58
2017-08-20T01:18:39.696Z,14.62
2017-08-20T01:21:07.407Z,14.65
2017-08-20T01:23:35.125Z,14.67
2017-08-20T01:26:02.831Z,14.64
2017-08-20T01:28:30.613Z,14.72
2017-08-20T01:30:58.327Z,14.76
2017-08-20T01:33:26.016Z,14.64
2017-08-20T01:35:53.739Z,14.62
2017-08-20T01:38:21.417Z,14.65
2017-08-20T01:40:49.153Z,14.54
2017-08-20T01:43:16.876Z,14.52
2017-08-20T01:45:44.606Z,14.49
2017-08-20T01:48:12.287Z,14.37
2017-08-20T01:50:40.013Z,14.42
2017-08-20T01:53:07.774Z,14.42
2017-08-20T01:55:35.478Z,14.32
2017-08-20T01:58:03.222Z,14.50
2017-08-20T02:00:45.895Z,14.25
2017-08-20T02:03:13.656Z,14.45
2017-08-20T02:05:41.334Z,14.34
2017-08-20T02:08:09.060Z,14.33
2017-08-20T02:10:36.783Z,14.32
2017-08-20T02:13:04.686Z,14.19
2017-08-20T02:15:32.451Z,14.23
2017-08-20T02:18:00.249Z,14.26
2017-08-20T02:20:28.009Z,14.33
2017-08-20T02:22:55.725Z,14.30
2017-08-20T02:25:23.414Z,14.21
2017-08-20T02:27:51.160Z,14.21
2017-08-20T02:30:18.839Z,14.22
2017-08-20T02:32:46.600Z,14.30
2017-08-20T02:35:14.351Z,14.21
2017-08-20T02:37:42.042Z,14.18
2017-08-20T02:40:09.788Z,14.16
2017-08-20T02:42:37.607Z,14.13
2017-08-20T02:45:05.377Z,14.11
2017-08-20T02:47:33.166Z,14.15
2017-08-20T02:50:00.876Z,14.12
2017-08-20T02:52:28.599Z,14.06
2017-08-20T02:54:56.288Z,13.98
2017-08-20T02:57:24.043Z,13.98
2017-08-20T02:59:51.780Z,14.01
2017-08-20T03:02:19.503Z,13.97
2017-08-20T03:04:47.230Z,13.93
2017-08-20T03:07:15.008Z,14.01
2017-08-20T03:09:42.705Z,13.94
2017-08-20T03:12:10.788Z,13.84
2017-08-20T03:14:38.562Z,13.83
2017-08-20T03:17:06.248Z,13.78
2017-08-20T03:19:33.962Z,13.83
2017-08-20T03:22:01.668Z,13.84
2017-08-20T03:24:29.396Z,13.89
2017-08-20T03:26:57.098Z,13.92
2017-08-20T03:29:24.782Z,13.89
2017-08-20T03:31:52.511Z,13.94
2017-08-20T03:34:20.210Z,13.93
2017-08-20T03:36:47.919Z,13.92
2017-08-20T03:39:15.640Z,13.92
2017-08-20T03:41:43.330Z,13.81
2017-08-20T03:44:11.045Z,13.83
2017-08-20T03:46:38.772Z,13.85
2017-08-20T03:49:06.453Z,13.74
2017-08-20T03:51:34.155Z,13.78
2017-08-20T03:54:01.962Z,13.67
2017-08-20T03:56:29.740Z,13.62
2017-08-20T03:58:57.449Z,13.67
2017-08-20T04:01:25.332Z,13.59
2017-08-20T04:03:53.260Z,13.50
2017-08-20T04:06:21.252Z,13.64
2017-08-20T04:08:48.979Z,13.69
2017-08-20T04:11:16.692Z,13.73
2017-08-20T04:13:44.386Z,13.75
2017-08-20T04:16:12.114Z,13.58
2017-08-20T04:18:39.839Z,13.67
2017-08-20T04:21:07.596Z,13.74
2017-08-20T04:23:35.304Z,13.78
2017-08-20T04:26:03.025Z,13.75
2017-08-20T04:28:30.807Z,13.55
2017-08-20T04:30:58.583Z,13.56
2017-08-20T04:33:26.281Z,13.51
2017-08-20T04:35:53.974Z,13.47
2017-08-20T04:38:21.773Z,13.46
2017-08-20T04:40:49.508Z,13.49
2017-08-20T04:43:17.416Z,13.39
2017-08-20T04:45:45.125Z,13.48
2017-08-20T04:48:12.828Z,13.54
2017-08-20T04:50:40.596Z,13.54
2017-08-20T04:53:08.308Z,13.54
2017-08-20T04:55:36.101Z,13.49
2017-08-20T04:58:03.819Z,13.51
2017-08-20T05:00:31.584Z,13.53
2017-08-20T05:02:59.265Z,13.54
2017-08-20T05:05:26.967Z,13.48
2017-08-20T05:07:54.710Z,13.48
2017-08-20T05:10:22.399Z,13.47
2017-08-20T05:12:50.121Z,13.47
2017-08-20T05:15:17.806Z,13.54
2017-08-20T05:17:45.554Z,13.57
2017-08-20T05:20:13.289Z,13.57
2017-08-20T05:22:40.964Z,13.38
2017-08-20T05:25:08.710Z,13.42
2017-08-20T05:27:36.404Z,13.45
2017-08-20T05:30:04.239Z,13.55
2017-08-20T05:32:32.096Z,13.61
2017-08-20T05:34:59.839Z,13.71
2017-08-20T05:37:27.628Z,13.70
2017-08-20T05:39:55.330Z,13.82
2017-08-20T05:42:23.066Z,13.76
2017-08-20T05:44:51.974Z,13.88
2017-08-20T05:47:19.674Z,13.90
2017-08-20T05:49:47.440Z,13.88
2017-08-20T05:52:15.159Z,13.86
2017-08-20T05:54:42.944Z,13.88
2017-08-20T05:57:10.653Z,13.83
2017-08-20T05:59:38.425Z,13.80
2017-08-20T06:02:06.218Z,13.80
2017-08-20T06:04:33.958Z,13.87
2017-08-20T06:07:01.734Z,13.59
2017-08-20T06:09:29.531Z,13.56
2017-08-20T06:11:57.325Z,13.50
2017-08-20T06:14:25.114Z,13.48
2017-08-20T06:16:52.921Z,13.62
2017-08-20T06:19:20.945Z,13.68
2017-08-20T06:21:48.832Z,13.78
2017-08-20T06:24:17.936Z,13.82
2017-08-20T06:26:45.707Z,13.93
2017-08-20T06:29:13.427Z,13.89
2017-08-20T06:31:41.210Z,13.90
2017-08-20T06:34:09.046Z,13.91
2017-08-20T06:36:36.825Z,14.04
2017-08-20T06:39:04.637Z,14.05
2017-08-20T06:41:32.325Z,14.16
2017-08-20T06:44:00.102Z,14.25
2017-08-20T06:46:27.845Z,14.29
2017-08-20T06:48:55.590Z,14.36
2017-08-20T06:51:23.375Z,14.35
2017-08-20T06:53:51.074Z,14.30
2017-08-20T06:56:18.773Z,14.24
2017-08-20T06:58:46.544Z,14.48
2017-08-20T07:01:14.296Z,14.50
2017-08-20T07:03:42.020Z,14.47
2017-08-20T07:06:09.739Z,14.36
2017-08-20T07:08:37.500Z,14.28
2017-08-20T07:11:05.227Z,14.61
2017-08-20T07:13:33.136Z,14.95
2017-08-20T07:16:00.907Z,14.92
2017-08-20T07:18:28.700Z,14.66
2017-08-20T07:20:56.410Z,14.61
2017-08-20T07:23:24.198Z,14.49
2017-08-20T07:25:52.026Z,14.23
2017-08-20T07:28:19.805Z,14.11
2017-08-20T07:30:47.612Z,13.95
2017-08-20T07:33:15.440Z,14.06
2017-08-20T07:35:43.249Z,14.13
2017-08-20T07:38:11.070Z,14.05
2017-08-20T07:40:39.644Z,14.14
2017-08-20T07:43:07.848Z,14.14
2017-08-20T07:45:35.598Z,13.93
2017-08-20T07:48:03.326Z,13.90
2017-08-20T07:50:31.225Z,13.96
2017-08-20T07:52:59.877Z,13.85
2017-08-20T07:55:27.763Z,13.85
2017-08-20T07:57:55.981Z,13.76
2017-08-20T08:00:23.810Z,13.83
2017-08-20T08:02:51.571Z,13.72
2017-08-20T08:05:19.364Z,13.75
2017-08-20T08:07:47.076Z,13.75
2017-08-20T08:10:14.867Z,13.60
2017-08-20T08:12:42.638Z,13.44
2017-08-20T08:15:10.609Z,13.54
2017-08-20T08:17:42.133Z,13.62
2017-08-20T08:20:09.912Z,13.70
2017-08-20T08:22:37.700Z,13.81
2017-08-20T08:25:05.514Z,13.84
2017-08-20T08:27:33.422Z,13.80
2017-08-20T08:30:01.222Z,13.72
2017-08-20T08:32:29.038Z,13.80
2017-08-20T08:34:56.815Z,13.93
2017-08-20T08:37:24.621Z,13.95
2017-08-20T08:39:52.381Z,13.91
2017-08-20T08:42:20.416Z,13.76
2017-08-20T08:44:48.253Z,13.77
2017-08-20T08:47:16.144Z,13.64
2017-08-20T08:49:43.961Z,13.63
2017-08-20T08:52:11.803Z,13.61
2017-08-20T08:54:39.723Z,13.63
2017-08-20T08:57:07.603Z,13.71
2017-08-20T08:59:35.350Z,13.70
2017-08-20T09:02:03.142Z,13.76
2017-08-20T09:04:30.990Z,13.80
2017-08-20T09:06:58.774Z,13.85
2017-08-20T09:09:26.577Z,13.98
2017-08-20T09:11:54.366Z,13.89
2017-08-20T09:14:22.157Z,13.84
2017-08-20T09:16:49.904Z,14.03
2017-08-20T09:19:17.644Z,14.18
2017-08-20T09:21:45.448Z,14.30
2017-08-20T09:24:13.473Z,14.35
2017-08-20T09:26:41.252Z,14.40
2017-08-20T09:29:09.013Z,14.49
2017-08-20T09:31:36.774Z,14.52
2017-08-20T09:34:04.562Z,14.57
2017-08-20T09:36:33.885Z,14.69
2017-08-20T09:39:01.594Z,14.60
2017-08-20T09:41:29.585Z,14.66
2017-08-20T09:43:57.301Z,14.55
2017-08-20T09:46:25.131Z,14.65
2017-08-20T09:48:52.851Z,14.48
2017-08-20T09:51:20.634Z,14.85
2017-08-20T09:53:48.407Z,15.13
2017-08-20T09:56:16.191Z,15.13
2017-08-20T09:58:43.965Z,15.28
2017-08-20T10:01:11.798Z,15.21
2017-08-20T10:03:39.640Z,15.25
2017-08-20T10:06:08.405Z,15.25
2017-08-20T10:08:36.523Z,15.23
2017-08-20T10:11:04.367Z,15.08
2017-08-20T10:13:32.165Z,15.02
2017-08-20T10:16:00.008Z,15.18
2017-08-20T10:18:27.881Z,15.07
2017-08-20T10:20:56.594Z,14.97
2017-08-20T10:23:24.415Z,14.99
2017-08-20T10:25:53.220Z,14.97
2017-08-20T10:28:20.988Z,15.22
2017-08-20T10:30:48.749Z,15.28
2017-08-20T10:33:16.625Z,15.32
2017-08-20T10:35:44.447Z,15.35
2017-08-20T10:38:12.253Z,15.44
2017-08-20T10:40:40.054Z,15.76
2017-08-20T10:43:07.852Z,16.04
2017-08-20T10:45:35.637Z,16.23
2017-08-20T10:48:03.409Z,16.60
2017-08-20T10:50:31.120Z,16.73
2017-08-20T10:52:58.971Z,16.84
2017-08-20T10:55:26.707Z,16.55
2017-08-20T10:57:54.508Z,16.73
2017-08-20T11:00:22.405Z,16.89
2017-08-20T11:02:50.183Z,16.81
2017-08-20T11:05:17.917Z,16.98
2017-08-20T11:07:45.683Z,16.94
2017-08-20T11:10:13.457Z,17.18
2017-08-20T11:12:41.179Z,17.37
2017-08-20T11:15:08.950Z,17.94
2017-08-20T11:17:36.757Z,18.02
2017-08-20T11:20:04.581Z,18.19
2017-08-20T11:22:32.303Z,18.21
2017-08-20T11:25:00.124Z,18.15
2017-08-20T11:27:27.926Z,18.12
2017-08-20T11:29:55.742Z,18.06
2017-08-20T11:32:24.021Z,18.03
2017-08-20T11:34:51.753Z,17.43
2017-08-20T11:37:19.571Z,17.61
2017-08-20T11:39:47.357Z,17.77
2017-08-20T11:42:15.205Z,17.55
2017-08-20T11:44:43.807Z,17.45
2017-08-20T11:47:11.575Z,17.38
2017-08-20T11:49:39.399Z,17.18
2017-08-20T11:52:07.226Z,17.28
2017-08-20T11:54:35.066Z,17.81
2017-08-20T11:57:03.069Z,17.71
2017-08-20T11:59:30.894Z,18.36
2017-08-20T12:01:58.720Z,18.31
2017-08-20T12:04:26.462Z,18.35
2017-08-20T12:06:54.328Z,18.04
2017-08-20T12:09:22.119Z,17.93
2017-08-20T12:11:49.867Z,17.86
2017-08-20T12:14:17.700Z,17.76
2017-08-20T12:16:45.441Z,17.86
2017-08-20T12:19:13.645Z,17.57
2017-08-20T12:21:41.378Z,17.70
2017-08-20T12:24:09.172Z,17.60
2017-08-20T12:26:36.923Z,17.59
2017-08-20T12:29:04.689Z,17.99
2017-08-20T12:31:32.426Z,18.28
2017-08-20T12:34:00.192Z,18.41
2017-08-20T12:36:27.927Z,18.51
2017-08-20T12:38:55.759Z,18.92
2017-08-20T12:41:23.576Z,18.78
2017-08-20T12:43:51.296Z,18.72
2017-08-20T12:46:19.008Z,18.74
2017-08-20T12:48:46.796Z,19.01
2017-08-20T12:51:14.556Z,18.72
2017-08-20T12:53:42.357Z,18.98
2017-08-20T12:56:10.109Z,19.29
2017-08-20T12:58:37.801Z,19.65
2017-08-20T13:01:05.567Z,19.69
2017-08-20T13:03:33.300Z,19.45
2017-08-20T13:06:01.014Z,19.63
2017-08-20T13:08:29.763Z,19.61
2017-08-20T13:10:57.530Z,19.16
2017-08-20T13:13:25.263Z,19.07
2017-08-20T13:15:53.007Z,19.28
2017-08-20T13:18:20.869Z,19.61
2017-08-20T13:20:48.659Z,19.54
2017-08-20T13:23:16.432Z,19.77
2017-08-20T13:25:44.268Z,19.27
2017-08-20T13:28:11.974Z,19.85
2017-08-20T13:30:39.769Z,19.86
2017-08-20T13:33:07.462Z,19.99
2017-08-20T13:35:35.255Z,19.81
2017-08-20T13:38:02.963Z,19.42
2017-08-20T13:40:30.743Z,18.97
2017-08-20T13:42:58.532Z,18.89
2017-08-20T13:45:26.265Z,18.66
2017-08-20T13:47:54.037Z,18.83
2017-08-20T13:50:21.800Z,18.72
2017-08-20T13:52:49.634Z,18.67
2017-08-20T13:55:17.405Z,18.61
2017-08-20T13:57:46.141Z,18.67
2017-08-20T14:00:13.919Z,18.39
2017-08-20T14:02:41.700Z,18.37
2017-08-20T14:05:09.535Z,18.37
2017-08-20T14:07:37.261Z,18.30
2017-08-20T14:10:05.100Z,18.18
2017-08-20T14:12:32.887Z,17.96
2017-08-20T14:15:00.663Z,17.72
2017-08-20T14:17:28.435Z,17.55
2017-08-20T14:19:56.544Z,17.34
2017-08-20T14:22:24.720Z,17.46
2017-08-20T14:24:52.442Z,17.21
2017-08-20T14:27:20.143Z,17.28
2017-08-20T14:29:47.966Z,17.30
2017-08-20T14:32:15.712Z,17.28
2017-08-20T14:34:43.515Z,17.34
2017-08-20T14:37:11.343Z,17.37
2017-08-20T14:39:39.059Z,17.31
2017-08-20T14:42:06.857Z,17.09
2017-08-20T14:44:34.668Z,17.07
2017-08-20T14:47:02.517Z,17.11
2017-08-20T14:49:30.269Z,17.13
2017-08-20T14:51:58.037Z,17.23
2017-08-20T14:54:25.764Z,17.05
2017-08-20T14:56:53.514Z,16.83
2017-08-20T14:59:21.335Z,16.92
2017-08-20T15:01:49.108Z,16.89
2017-08-20T15:04:16.903Z,16.98
2017-08-20T15:06:44.716Z,16.86
2017-08-20T15:09:12.448Z,16.90
2017-08-20T15:11:40.238Z,16.92
2017-08-20T15:14:08.057Z,17.18
2017-08-20T15:16:35.865Z,17.57
2017-08-20T15:19:03.711Z,17.60
2017-08-20T15:21:31.467Z,17.82
2017-08-20T15:23:59.266Z,18.10
2017-08-20T15:26:27.055Z,18.15
2017-08-20T15:28:54.886Z,18.07
2017-08-20T15:31:22.708Z,18.22
2017-08-20T15:33:50.461Z,17.99
2017-08-20T15:36:18.305Z,17.85
2017-08-20T15:38:46.098Z,17.59
2017-08-20T15:41:13.880Z,17.83
2017-08-20T15:43:41.617Z,17.81
2017-08-20T15:46:09.399Z,17.78
2017-08-20T15:48:37.156Z,17.85
2017-08-20T15:51:04.948Z,17.67
2017-08-20T15:53:32.701Z,17.37
2017-08-20T15:56:00.468Z,17.05
2017-08-20T15:58:28.232Z,16.87
2017-08-20T16:00:55.975Z,16.82
2017-08-20T16:03:23.723Z,16.75
2017-08-20T16:05:51.443Z,16.72
2017-08-20T16:08:19.233Z,16.61
2017-08-20T16:10:47.085Z,16.55
2017-08-20T16:13:14.864Z,16.56
2017-08-20T16:15:42.621Z,16.34
2017-08-20T16:18:10.429Z,16.32
2017-08-20T16:20:38.229Z,16.41
2017-08-20T16:23:06.812Z,16.42
2017-08-20T16:25:34.649Z,16.47
2017-08-20T16:28:02.431Z,16.47
2017-08-20T16:30:30.258Z,16.30
2017-08-20T16:32:58.025Z,16.38
2017-08-20T16:35:25.852Z,16.55
2017-08-20T16:37:53.682Z,16.62
2017-08-20T16:40:21.767Z,16.53
2017-08-20T16:42:50.092Z,16.47
2017-08-20T16:45:18.493Z,16.38
2017-08-20T16:47:47.503Z,16.30
2017-08-20T16:50:15.304Z,16.20
2017-08-20T16:52:43.067Z,16.15
2017-08-20T16:55:10.803Z,16.01
2017-08-20T16:57:38.725Z,15.97
2017-08-20T17:00:06.431Z,15.85
2017-08-20T17:02:34.151Z,15.80
2017-08-20T17:05:03.050Z,15.80
2017-08-20T17:07:30.845Z,15.62
2017-08-20T17:09:58.671Z,15.54
2017-08-20T17:12:26.451Z,15.53
2017-08-20T17:14:54.267Z,15.58
2017-08-20T17:17:22.026Z,15.58
2017-08-20T17:19:50.587Z,15.50
2017-08-20T17:22:18.412Z,15.42
2017-08-20T17:24:46.175Z,15.33
2017-08-20T17:27:14.025Z,15.28
2017-08-20T17:29:41.807Z,15.22
2017-08-20T17:32:09.590Z,15.14
2017-08-20T17:34:37.432Z,15.02
2017-08-20T17:37:06.190Z,15.01
2017-08-20T17:39:33.987Z,14.99
2017-08-20T17:42:01.815Z,14.91
2017-08-20T17:44:29.621Z,14.86
2017-08-20T17:46:57.465Z,14.84
2017-08-20T17:49:26.280Z,14.78
2017-08-20T17:51:54.237Z,14.79
2017-08-20T17:54:22.040Z,14.73
2017-08-20T17:56:49.867Z,14.65
2017-08-20T17:59:17.924Z,14.53
2017-08-20T18:01:47.040Z,14.47
2017-08-20T18:04:14.863Z,14.44
2017-08-20T18:06:43.336Z,14.38
2017-08-20T18:09:11.892Z,14.37
2017-08-20T18:11:39.815Z,14.34
2017-08-20T18:14:08.410Z,14.23
2017-08-20T18:16:36.202Z,14.19
2017-08-20T18:19:04.157Z,14.14
2017-08-20T18:21:31.978Z,14.10
2017-08-20T18:24:00.411Z,14.03
2017-08-20T18:26:28.192Z,13.96
2017-08-20T18:28:56.009Z,13.94
2017-08-20T18:31:23.770Z,13.90
2017-08-20T18:33:51.639Z,13.92
2017-08-20T18:36:19.955Z,13.77
2017-08-20T18:38:48.318Z,13.62
2017-08-20T18:41:16.156Z,13.55
2017-08-20T18:43:44.012Z,13.41
2017-08-20T18:46:12.012Z,13.44
2017-08-20T18:48:41.047Z,13.45
2017-08-20T18:51:09.603Z,13.43
2017-08-20T18:53:39.110Z,13.39
2017-08-20T18:56:11.517Z,13.29
2017-08-20T18:58:41.852Z,13.25
2017-08-20T19:01:10.248Z,13.37
2017-08-20T19:03:39.340Z,13.24
2017-08-20T19:06:10.099Z,13.34
2017-08-20T19:08:41.140Z,13.21
2017-08-20T19:11:09.290Z,13.07
2017-08-20T19:13:38.514Z,13.03
2017-08-20T19:16:07.603Z,13.05
2017-08-20T19:18:37.995Z,13.11
2017-08-20T19:21:05.921Z,13.04
2017-08-20T19:23:35.226Z,12.97
2017-08-20T19:26:04.689Z,13.06
2017-08-20T19:28:33.268Z,13.07
2017-08-20T19:31:01.392Z,13.10
2017-08-20T19:33:30.119Z,12.99
2017-08-20T19:35:58.550Z,12.95
2017-08-20T19:38:26.402Z,12.83
2017-08-20T19:40:56.467Z,12.75
2017-08-20T19:43:24.768Z,12.84
2017-08-20T19:45:52.669Z,12.93
2017-08-20T19:48:21.264Z,12.79
2017-08-20T19:50:50.246Z,12.69
2017-08-20T19:53:18.027Z,12.71
2017-08-20T19:55:45.790Z,12.68
2017-08-20T19:58:14.440Z,12.70
2017-08-20T20:00:42.193Z,12.66
2017-08-20T20:03:10.029Z,12.68
2017-08-20T20:05:37.855Z,12.74
2017-08-20T20:08:06.180Z,12.74
2017-08-20T20:10:34.139Z,12.75
2017-08-20T20:13:02.973Z,12.78
2017-08-20T20:15:30.851Z,12.79
2017-08-20T20:17:58.576Z,12.80
2017-08-20T20:20:26.463Z,12.74
2017-08-20T20:22:54.273Z,12.64
2017-08-20T20:25:22.581Z,12.56
2017-08-20T20:27:50.356Z,12.64
2017-08-20T20:30:18.140Z,12.55
2017-08-20T20:32:46.041Z,12.65
2017-08-20T20:35:14.185Z,12.52
2017-08-20T20:37:42.058Z,12.48
2017-08-20T20:40:10.567Z,12.41
2017-08-20T20:42:38.433Z,12.28
2017-08-20T20:45:06.191Z,12.34
2017-08-20T20:47:33.926Z,12.34
2017-08-20T20:50:01.699Z,12.35
2017-08-20T20:52:29.453Z,12.30
2017-08-20T20:54:57.190Z,12.28
2017-08-20T20:57:24.988Z,12.29
2017-08-20T20:59:52.715Z,12.21
2017-08-20T21:02:20.437Z,12.25
2017-08-20T21:04:48.212Z,12.06
2017-08-20T21:07:15.956Z,12.14
2017-08-20T21:09:43.748Z,12.10
2017-08-20T21:12:12.727Z,12.08
2017-08-20T21:14:40.457Z,12.12
2017-08-20T21:17:09.268Z,12.03
2017-08-20T21:19:37.039Z,11.98
2017-08-20T21:22:04.810Z,11.97
2017-08-20T21:24:32.588Z,11.97
2017-08-20T21:27:00.395Z,11.90
2017-08-20T21:29:28.110Z,11.65
2017-08-20T21:31:55.842Z,11.61
2017-08-20T21:34:23.738Z,11.80
2017-08-20T21:36:51.462Z,11.89
2017-08-20T21:39:19.244Z,11.81
2017-08-20T21:41:46.948Z,11.92
2017-08-20T21:44:15.451Z,11.98
2017-08-20T21:46:43.212Z,12.13
2017-08-20T21:49:10.950Z,12.09
2017-08-20T21:51:38.675Z,11.97
2017-08-20T21:54:06.439Z,12.06
2017-08-20T21:56:34.172Z,12.05
2017-08-20T21:59:01.903Z,11.98
2017-08-20T22:01:29.712Z,12.01
2017-08-20T22:03:57.475Z,12.07
2017-08-20T22:06:25.181Z,11.91
2017-08-20T22:08:53.805Z,11.84
2017-08-20T22:11:21.480Z,11.82
2017-08-20T22:13:49.179Z,11.74
2017-08-20T22:16:16.920Z,11.81
2017-08-20T22:18:44.646Z,11.78
2017-08-20T22:21:12.417Z,11.81
2017-08-20T22:23:40.178Z,11.76
2017-08-20T22:26:08.083Z,11.62
2017-08-20T22:28:35.872Z,11.60
2017-08-20T22:31:03.633Z,11.41
2017-08-20T22:33:31.355Z,11.52
2017-08-20T22:35:59.136Z,11.57
2017-08-20T22:38:26.861Z,11.59
2017-08-20T22:40:54.618Z,11.53
2017-08-20T22:43:22.296Z,11.63
2017-08-20T22:45:49.994Z,11.48
2017-08-20T22:48:17.759Z,11.44
2017-08-20T22:50:45.527Z,11.50
2017-08-20T22:53:13.268Z,11.44
2017-08-20T22:55:41.003Z,11.40
2017-08-20T22:58:08.810Z,11.38
2017-08-20T23:00:36.521Z,11.41
2017-08-20T23:03:04.366Z,11.22
2017-08-20T23:05:32.078Z,11.28
2017-08-20T23:07:59.878Z,11.25
2017-08-20T23:10:27.639Z,11.27
2017-08-20T23:12:55.441Z,11.26
2017-08-20T23:15:23.179Z,11.15
2017-08-20T23:17:50.882Z,11.20
2017-08-20T23:20:18.776Z,11.22
2017-08-20T23:22:46.479Z,11.10
2017-08-20T23:25:14.170Z,11.07
2017-08-20T23:27:41.935Z,11.13
2017-08-20T23:30:09.696Z,11.17
2017-08-20T23:32:37.413Z,11.24
2017-08-20T23:35:05.147Z,11.22
2017-08-20T23:37:32.893Z,11.23
2017-08-20T23:40:00.580Z,11.34
2017-08-20T23:42:28.315Z,11.36
2017-08-20T23:44:56.034Z,11.37
2017-08-20T23:47:23.804Z,11.44
2017-08-20T23:49:51.521Z,11.26
2017-08-20T23:52:19.294Z,11.21
2017-08-20T23:54:47.004Z,11.31
2017-08-20T23:57:14.771Z,11.32
2017-08-20T23:59:43.115Z,11.22
